sensor_id;sensor_type;location;lat;lon;timestamp;P1;durP1;ratioP1;P2;durP2;ratioP2
40967;SDS011;57377;45.130;6.038;2023-05-20T00:00:45;10.82;;;8.18;;
40967;SDS011;57377;45.130;6.038;2023-05-20T00:03:14;13.98;;;8.15;;
40967;SDS011;57377;45.130;6.038;2023-05-20T00:05:40;13.43;;;9.32;;
40967;SDS011;57377;45.130;6.038;2023-05-20T00:08:05;13.73;;;9.18;;
40967;SDS011;57377;45.130;6.038;2023-05-20T00:10:33;10.30;;;8.05;;
40967;SDS011;57377;45.130;6.038;2023-05-20T00:12:59;14.55;;;9.90;;
40967;SDS011;57377;45.130;6.038;2023-05-20T00:15:25;10.65;;;8.35;;
40967;SDS011;57377;45.130;6.038;2023-05-20T00:17:50;12.23;;;9.27;;
40967;SDS011;57377;45.130;6.038;2023-05-20T00:20:16;15.30;;;9.98;;
40967;SDS011;57377;45.130;6.038;2023-05-20T00:22:41;12.05;;;9.20;;
40967;SDS011;57377;45.130;6.038;2023-05-20T00:25:06;11.40;;;8.93;;
40967;SDS011;57377;45.130;6.038;2023-05-20T00:27:32;15.43;;;9.13;;
40967;SDS011;57377;45.130;6.038;2023-05-20T00:29:57;9.63;;;6.63;;
40967;SDS011;57377;45.130;6.038;2023-05-20T00:32:23;9.85;;;5.15;;
40967;SDS011;57377;45.130;6.038;2023-05-20T00:34:55;10.00;;;7.30;;
40967;SDS011;57377;45.130;6.038;2023-05-20T00:37:22;9.88;;;6.05;;
40967;SDS011;57377;45.130;6.038;2023-05-20T00:39:47;13.93;;;6.88;;
40967;SDS011;57377;45.130;6.038;2023-05-20T00:42:46;16.52;;;7.30;;
40967;SDS011;57377;45.130;6.038;2023-05-20T00:45:04;8.40;;;6.18;;
40967;SDS011;57377;45.130;6.038;2023-05-20T00:47:31;12.05;;;7.63;;
40967;SDS011;57377;45.130;6.038;2023-05-20T00:49:58;10.63;;;7.32;;
40967;SDS011;57377;45.130;6.038;2023-05-20T00:52:24;12.27;;;7.90;;
40967;SDS011;57377;45.130;6.038;2023-05-20T00:54:51;15.93;;;7.30;;
40967;SDS011;57377;45.130;6.038;2023-05-20T00:57:16;9.88;;;8.00;;
40967;SDS011;57377;45.130;6.038;2023-05-20T00:59:43;12.65;;;8.50;;
40967;SDS011;57377;45.130;6.038;2023-05-20T01:02:09;13.05;;;10.18;;
40967;SDS011;57377;45.130;6.038;2023-05-20T01:04:34;17.80;;;10.45;;
40967;SDS011;57377;45.130;6.038;2023-05-20T01:07:01;15.00;;;11.43;;
40967;SDS011;57377;45.130;6.038;2023-05-20T01:09:29;15.27;;;10.40;;
40967;SDS011;57377;45.130;6.038;2023-05-20T01:12:02;13.10;;;10.55;;
40967;SDS011;57377;45.130;6.038;2023-05-20T01:14:47;16.08;;;12.50;;
40967;SDS011;57377;45.130;6.038;2023-05-20T01:17:15;19.48;;;13.40;;
40967;SDS011;57377;45.130;6.038;2023-05-20T01:19:44;17.15;;;12.60;;
40967;SDS011;57377;45.130;6.038;2023-05-20T01:22:12;22.63;;;12.85;;
40967;SDS011;57377;45.130;6.038;2023-05-20T01:24:39;19.30;;;13.05;;
40967;SDS011;57377;45.130;6.038;2023-05-20T01:27:05;17.90;;;12.88;;
40967;SDS011;57377;45.130;6.038;2023-05-20T01:29:34;16.35;;;11.30;;
40967;SDS011;57377;45.130;6.038;2023-05-20T01:32:00;17.35;;;12.02;;
40967;SDS011;57377;45.130;6.038;2023-05-20T01:34:29;19.10;;;11.98;;
40967;SDS011;57377;45.130;6.038;2023-05-20T01:36:56;15.00;;;12.25;;
40967;SDS011;57377;45.130;6.038;2023-05-20T01:39:22;16.80;;;12.68;;
40967;SDS011;57377;45.130;6.038;2023-05-20T01:41:48;16.33;;;12.13;;
40967;SDS011;57377;45.130;6.038;2023-05-20T01:44:15;17.83;;;12.73;;
40967;SDS011;57377;45.130;6.038;2023-05-20T01:46:40;18.17;;;10.63;;
40967;SDS011;57377;45.130;6.038;2023-05-20T01:49:05;16.90;;;11.50;;
40967;SDS011;57377;45.130;6.038;2023-05-20T01:51:31;14.82;;;11.05;;
40967;SDS011;57377;45.130;6.038;2023-05-20T01:53:59;14.45;;;10.23;;
40967;SDS011;57377;45.130;6.038;2023-05-20T01:56:24;14.40;;;10.20;;
40967;SDS011;57377;45.130;6.038;2023-05-20T01:58:50;16.63;;;11.20;;
40967;SDS011;57377;45.130;6.038;2023-05-20T02:01:15;15.60;;;10.73;;
40967;SDS011;57377;45.130;6.038;2023-05-20T02:03:40;17.48;;;10.70;;
40967;SDS011;57377;45.130;6.038;2023-05-20T02:06:06;14.48;;;10.18;;
40967;SDS011;57377;45.130;6.038;2023-05-20T02:08:31;13.80;;;10.70;;
40967;SDS011;57377;45.130;6.038;2023-05-20T02:10:56;16.08;;;11.13;;
40967;SDS011;57377;45.130;6.038;2023-05-20T02:13:22;15.23;;;10.70;;
40967;SDS011;57377;45.130;6.038;2023-05-20T02:15:47;14.75;;;10.65;;
40967;SDS011;57377;45.130;6.038;2023-05-20T02:18:12;17.88;;;10.55;;
40967;SDS011;57377;45.130;6.038;2023-05-20T02:20:38;16.33;;;11.95;;
40967;SDS011;57377;45.130;6.038;2023-05-20T02:23:03;17.80;;;11.65;;
40967;SDS011;57377;45.130;6.038;2023-05-20T02:25:30;16.25;;;11.57;;
40967;SDS011;57377;45.130;6.038;2023-05-20T02:27:56;16.33;;;11.75;;
40967;SDS011;57377;45.130;6.038;2023-05-20T02:30:21;19.35;;;10.88;;
40967;SDS011;57377;45.130;6.038;2023-05-20T02:32:46;16.73;;;13.07;;
40967;SDS011;57377;45.130;6.038;2023-05-20T02:35:12;13.38;;;10.85;;
40967;SDS011;57377;45.130;6.038;2023-05-20T02:37:37;14.38;;;11.20;;
40967;SDS011;57377;45.130;6.038;2023-05-20T02:40:03;8.85;;;7.30;;
40967;SDS011;57377;45.130;6.038;2023-05-20T02:44:56;9.73;;;7.13;;
40967;SDS011;57377;45.130;6.038;2023-05-20T02:47:22;9.30;;;6.57;;
40967;SDS011;57377;45.130;6.038;2023-05-20T02:49:49;11.13;;;7.03;;
40967;SDS011;57377;45.130;6.038;2023-05-20T02:52:14;9.60;;;7.03;;
40967;SDS011;57377;45.130;6.038;2023-05-20T02:54:40;8.80;;;6.60;;
40967;SDS011;57377;45.130;6.038;2023-05-20T02:57:05;10.52;;;7.05;;
40967;SDS011;57377;45.130;6.038;2023-05-20T02:59:31;6.18;;;4.88;;
40967;SDS011;57377;45.130;6.038;2023-05-20T03:01:56;9.40;;;6.78;;
40967;SDS011;57377;45.130;6.038;2023-05-20T03:04:22;11.23;;;6.78;;
40967;SDS011;57377;45.130;6.038;2023-05-20T03:09:16;8.77;;;6.45;;
40967;SDS011;57377;45.130;6.038;2023-05-20T03:11:42;7.03;;;5.65;;
40967;SDS011;57377;45.130;6.038;2023-05-20T03:14:08;6.30;;;5.30;;
40967;SDS011;57377;45.130;6.038;2023-05-20T03:16:33;7.93;;;4.35;;
40967;SDS011;57377;45.130;6.038;2023-05-20T03:18:59;8.30;;;4.35;;
40967;SDS011;57377;45.130;6.038;2023-05-20T03:21:25;6.05;;;4.28;;
40967;SDS011;57377;45.130;6.038;2023-05-20T03:23:50;4.78;;;4.18;;
40967;SDS011;57377;45.130;6.038;2023-05-20T03:26:16;5.35;;;4.20;;
40967;SDS011;57377;45.130;6.038;2023-05-20T03:28:41;5.35;;;4.20;;
40967;SDS011;57377;45.130;6.038;2023-05-20T03:31:07;4.85;;;3.92;;
40967;SDS011;57377;45.130;6.038;2023-05-20T03:33:33;9.95;;;4.55;;
40967;SDS011;57377;45.130;6.038;2023-05-20T03:35:59;10.73;;;5.50;;
40967;SDS011;57377;45.130;6.038;2023-05-20T03:38:24;11.35;;;5.28;;
40967;SDS011;57377;45.130;6.038;2023-05-20T03:40:50;8.00;;;4.35;;
40967;SDS011;57377;45.130;6.038;2023-05-20T03:43:15;7.43;;;4.20;;
40967;SDS011;57377;45.130;6.038;2023-05-20T03:45:40;6.75;;;3.72;;
40967;SDS011;57377;45.130;6.038;2023-05-20T03:48:06;6.38;;;4.53;;
40967;SDS011;57377;45.130;6.038;2023-05-20T03:50:31;10.38;;;4.75;;
40967;SDS011;57377;45.130;6.038;2023-05-20T03:52:57;5.63;;;3.70;;
40967;SDS011;57377;45.130;6.038;2023-05-20T03:55:22;7.47;;;3.53;;
40967;SDS011;57377;45.130;6.038;2023-05-20T03:57:48;5.63;;;4.20;;
40967;SDS011;57377;45.130;6.038;2023-05-20T04:00:14;8.40;;;4.82;;
40967;SDS011;57377;45.130;6.038;2023-05-20T04:02:40;7.60;;;5.30;;
40967;SDS011;57377;45.130;6.038;2023-05-20T04:05:06;6.15;;;4.82;;
40967;SDS011;57377;45.130;6.038;2023-05-20T04:07:34;8.60;;;5.25;;
40967;SDS011;57377;45.130;6.038;2023-05-20T04:09:59;8.77;;;5.70;;
40967;SDS011;57377;45.130;6.038;2023-05-20T04:12:25;6.97;;;4.78;;
40967;SDS011;57377;45.130;6.038;2023-05-20T04:15:00;8.57;;;5.55;;
40967;SDS011;57377;45.130;6.038;2023-05-20T04:17:27;8.05;;;5.45;;
40967;SDS011;57377;45.130;6.038;2023-05-20T04:19:54;6.18;;;5.18;;
40967;SDS011;57377;45.130;6.038;2023-05-20T04:22:20;6.57;;;5.00;;
40967;SDS011;57377;45.130;6.038;2023-05-20T04:24:45;7.10;;;4.90;;
40967;SDS011;57377;45.130;6.038;2023-05-20T04:27:11;6.35;;;5.18;;
40967;SDS011;57377;45.130;6.038;2023-05-20T04:29:36;5.80;;;4.25;;
40967;SDS011;57377;45.130;6.038;2023-05-20T04:32:01;5.97;;;4.68;;
40967;SDS011;57377;45.130;6.038;2023-05-20T04:34:30;5.80;;;4.40;;
40967;SDS011;57377;45.130;6.038;2023-05-20T04:36:59;9.10;;;4.68;;
40967;SDS011;57377;45.130;6.038;2023-05-20T04:39:25;5.78;;;4.10;;
40967;SDS011;57377;45.130;6.038;2023-05-20T04:41:51;5.68;;;3.95;;
40967;SDS011;57377;45.130;6.038;2023-05-20T04:44:19;4.78;;;3.95;;
40967;SDS011;57377;45.130;6.038;2023-05-20T04:46:44;5.07;;;3.80;;
40967;SDS011;57377;45.130;6.038;2023-05-20T04:49:10;14.50;;;4.00;;
40967;SDS011;57377;45.130;6.038;2023-05-20T04:51:35;10.07;;;3.88;;
40967;SDS011;57377;45.130;6.038;2023-05-20T04:54:01;6.32;;;3.88;;
40967;SDS011;57377;45.130;6.038;2023-05-20T04:56:26;6.60;;;3.58;;
40967;SDS011;57377;45.130;6.038;2023-05-20T04:58:51;4.57;;;3.67;;
40967;SDS011;57377;45.130;6.038;2023-05-20T05:01:17;3.80;;;3.22;;
40967;SDS011;57377;45.130;6.038;2023-05-20T05:03:42;8.35;;;3.45;;
40967;SDS011;57377;45.130;6.038;2023-05-20T05:06:08;5.30;;;3.72;;
40967;SDS011;57377;45.130;6.038;2023-05-20T05:08:33;5.28;;;3.15;;
40967;SDS011;57377;45.130;6.038;2023-05-20T05:10:59;6.45;;;3.10;;
40967;SDS011;57377;45.130;6.038;2023-05-20T05:13:24;5.50;;;3.60;;
40967;SDS011;57377;45.130;6.038;2023-05-20T05:16:07;4.53;;;3.20;;
40967;SDS011;57377;45.130;6.038;2023-05-20T05:18:33;4.28;;;3.03;;
40967;SDS011;57377;45.130;6.038;2023-05-20T05:20:59;4.40;;;3.30;;
40967;SDS011;57377;45.130;6.038;2023-05-20T05:23:26;4.05;;;3.03;;
40967;SDS011;57377;45.130;6.038;2023-05-20T05:25:51;6.43;;;3.55;;
40967;SDS011;57377;45.130;6.038;2023-05-20T05:28:17;6.40;;;3.95;;
40967;SDS011;57377;45.130;6.038;2023-05-20T05:30:42;6.35;;;3.70;;
40967;SDS011;57377;45.130;6.038;2023-05-20T05:33:08;4.68;;;3.70;;
40967;SDS011;57377;45.130;6.038;2023-05-20T05:35:33;4.18;;;3.35;;
40967;SDS011;57377;45.130;6.038;2023-05-20T05:37:58;5.85;;;3.88;;
40967;SDS011;57377;45.130;6.038;2023-05-20T05:40:24;4.72;;;3.90;;
40967;SDS011;57377;45.130;6.038;2023-05-20T05:42:50;7.75;;;3.65;;
40967;SDS011;57377;45.130;6.038;2023-05-20T05:45:15;7.22;;;3.85;;
40967;SDS011;57377;45.130;6.038;2023-05-20T05:47:41;5.65;;;3.67;;
40967;SDS011;57377;45.130;6.038;2023-05-20T05:50:06;8.75;;;3.75;;
40967;SDS011;57377;45.130;6.038;2023-05-20T05:52:32;5.45;;;3.28;;
40967;SDS011;57377;45.130;6.038;2023-05-20T05:54:58;5.38;;;4.00;;
40967;SDS011;57377;45.130;6.038;2023-05-20T05:57:23;6.22;;;4.03;;
40967;SDS011;57377;45.130;6.038;2023-05-20T05:59:48;5.50;;;3.90;;
40967;SDS011;57377;45.130;6.038;2023-05-20T06:02:14;5.90;;;4.13;;
40967;SDS011;57377;45.130;6.038;2023-05-20T06:04:39;7.90;;;3.90;;
40967;SDS011;57377;45.130;6.038;2023-05-20T06:07:05;6.13;;;3.63;;
40967;SDS011;57377;45.130;6.038;2023-05-20T06:09:30;4.28;;;3.35;;
40967;SDS011;57377;45.130;6.038;2023-05-20T06:11:56;5.72;;;3.20;;
40967;SDS011;57377;45.130;6.038;2023-05-20T06:17:22;4.70;;;3.15;;
40967;SDS011;57377;45.130;6.038;2023-05-20T06:19:47;4.25;;;3.22;;
40967;SDS011;57377;45.130;6.038;2023-05-20T06:22:14;8.73;;;3.70;;
40967;SDS011;57377;45.130;6.038;2023-05-20T06:24:41;6.40;;;3.67;;
40967;SDS011;57377;45.130;6.038;2023-05-20T06:27:48;6.53;;;3.92;;
40967;SDS011;57377;45.130;6.038;2023-05-20T06:30:14;6.47;;;4.05;;
40967;SDS011;57377;45.130;6.038;2023-05-20T06:32:39;4.88;;;3.55;;
40967;SDS011;57377;45.130;6.038;2023-05-20T06:35:05;7.38;;;4.18;;
40967;SDS011;57377;45.130;6.038;2023-05-20T06:37:33;8.20;;;4.22;;
40967;SDS011;57377;45.130;6.038;2023-05-20T06:40:01;5.40;;;4.00;;
40967;SDS011;57377;45.130;6.038;2023-05-20T06:42:27;5.13;;;3.85;;
40967;SDS011;57377;45.130;6.038;2023-05-20T06:44:53;4.72;;;3.85;;
40967;SDS011;57377;45.130;6.038;2023-05-20T06:47:19;10.50;;;4.25;;
40967;SDS011;57377;45.130;6.038;2023-05-20T06:49:44;7.80;;;4.33;;
40967;SDS011;57377;45.130;6.038;2023-05-20T06:52:10;10.35;;;4.45;;
40967;SDS011;57377;45.130;6.038;2023-05-20T06:54:38;7.70;;;4.30;;
40967;SDS011;57377;45.130;6.038;2023-05-20T06:57:06;6.20;;;4.35;;
40967;SDS011;57377;45.130;6.038;2023-05-20T06:59:33;10.48;;;3.50;;
40967;SDS011;57377;45.130;6.038;2023-05-20T07:01:59;4.10;;;3.67;;
40967;SDS011;57377;45.130;6.038;2023-05-20T07:04:24;4.43;;;3.72;;
40967;SDS011;57377;45.130;6.038;2023-05-20T07:06:50;4.65;;;4.10;;
40967;SDS011;57377;45.130;6.038;2023-05-20T07:09:15;5.30;;;4.45;;
40967;SDS011;57377;45.130;6.038;2023-05-20T07:11:41;7.55;;;4.97;;
40967;SDS011;57377;45.130;6.038;2023-05-20T07:14:06;6.40;;;5.72;;
40967;SDS011;57377;45.130;6.038;2023-05-20T07:16:33;8.55;;;5.57;;
40967;SDS011;57377;45.130;6.038;2023-05-20T07:18:59;7.72;;;6.65;;
40967;SDS011;57377;45.130;6.038;2023-05-20T07:21:24;10.73;;;7.43;;
40967;SDS011;57377;45.130;6.038;2023-05-20T07:23:50;11.05;;;7.70;;
40967;SDS011;57377;45.130;6.038;2023-05-20T07:26:15;10.30;;;8.43;;
40967;SDS011;57377;45.130;6.038;2023-05-20T07:28:40;9.30;;;7.10;;
40967;SDS011;57377;45.130;6.038;2023-05-20T07:31:06;7.93;;;6.30;;
40967;SDS011;57377;45.130;6.038;2023-05-20T07:33:31;12.02;;;8.63;;
40967;SDS011;57377;45.130;6.038;2023-05-20T07:35:57;10.68;;;8.57;;
40967;SDS011;57377;45.130;6.038;2023-05-20T07:38:22;15.85;;;9.77;;
40967;SDS011;57377;45.130;6.038;2023-05-20T07:40:47;12.48;;;9.55;;
40967;SDS011;57377;45.130;6.038;2023-05-20T07:43:13;11.82;;;8.55;;
40967;SDS011;57377;45.130;6.038;2023-05-20T07:45:38;13.07;;;10.20;;
40967;SDS011;57377;45.130;6.038;2023-05-20T07:48:04;13.70;;;9.90;;
40967;SDS011;57377;45.130;6.038;2023-05-20T07:50:30;16.15;;;10.90;;
40967;SDS011;57377;45.130;6.038;2023-05-20T07:52:55;14.82;;;10.63;;
40967;SDS011;57377;45.130;6.038;2023-05-20T07:55:24;12.00;;;9.98;;
40967;SDS011;57377;45.130;6.038;2023-05-20T07:57:49;15.60;;;10.25;;
40967;SDS011;57377;45.130;6.038;2023-05-20T08:00:15;15.38;;;11.88;;
40967;SDS011;57377;45.130;6.038;2023-05-20T08:02:40;14.40;;;11.00;;
40967;SDS011;57377;45.130;6.038;2023-05-20T08:05:06;10.90;;;9.43;;
40967;SDS011;57377;45.130;6.038;2023-05-20T08:07:32;10.43;;;8.95;;
40967;SDS011;57377;45.130;6.038;2023-05-20T08:09:58;12.05;;;9.30;;
40967;SDS011;57377;45.130;6.038;2023-05-20T08:12:23;22.58;;;9.45;;
40967;SDS011;57377;45.130;6.038;2023-05-20T08:14:48;14.45;;;9.35;;
40967;SDS011;57377;45.130;6.038;2023-05-20T08:17:14;16.05;;;9.30;;
40967;SDS011;57377;45.130;6.038;2023-05-20T08:19:39;14.90;;;9.05;;
40967;SDS011;57377;45.130;6.038;2023-05-20T08:22:06;11.57;;;9.30;;
40967;SDS011;57377;45.130;6.038;2023-05-20T08:24:32;11.60;;;9.60;;
40967;SDS011;57377;45.130;6.038;2023-05-20T08:26:58;14.60;;;9.38;;
40967;SDS011;57377;45.130;6.038;2023-05-20T08:29:23;14.10;;;10.63;;
40967;SDS011;57377;45.130;6.038;2023-05-20T08:31:48;13.82;;;10.25;;
40967;SDS011;57377;45.130;6.038;2023-05-20T08:37:01;19.05;;;11.10;;
40967;SDS011;57377;45.130;6.038;2023-05-20T08:39:30;13.85;;;10.40;;
40967;SDS011;57377;45.130;6.038;2023-05-20T08:41:56;16.63;;;11.05;;
40967;SDS011;57377;45.130;6.038;2023-05-20T08:44:22;17.80;;;11.23;;
40967;SDS011;57377;45.130;6.038;2023-05-20T08:46:52;14.82;;;10.98;;
40967;SDS011;57377;45.130;6.038;2023-05-20T08:54:43;17.88;;;9.77;;
40967;SDS011;57377;45.130;6.038;2023-05-20T08:57:10;14.48;;;10.07;;
40967;SDS011;57377;45.130;6.038;2023-05-20T08:59:39;14.90;;;10.55;;
40967;SDS011;57377;45.130;6.038;2023-05-20T09:02:06;13.57;;;10.75;;
40967;SDS011;57377;45.130;6.038;2023-05-20T09:04:32;16.05;;;10.88;;
40967;SDS011;57377;45.130;6.038;2023-05-20T09:06:57;13.48;;;10.77;;
40967;SDS011;57377;45.130;6.038;2023-05-20T09:09:23;13.15;;;10.15;;
40967;SDS011;57377;45.130;6.038;2023-05-20T09:11:49;14.20;;;10.98;;
40967;SDS011;57377;45.130;6.038;2023-05-20T09:14:14;13.43;;;10.73;;
40967;SDS011;57377;45.130;6.038;2023-05-20T09:16:39;12.48;;;10.15;;
40967;SDS011;57377;45.130;6.038;2023-05-20T09:19:05;15.30;;;10.85;;
40967;SDS011;57377;45.130;6.038;2023-05-20T09:21:31;15.45;;;11.55;;
40967;SDS011;57377;45.130;6.038;2023-05-20T09:23:57;14.02;;;10.63;;
40967;SDS011;57377;45.130;6.038;2023-05-20T09:26:26;13.40;;;10.30;;
40967;SDS011;57377;45.130;6.038;2023-05-20T09:28:54;14.57;;;11.37;;
40967;SDS011;57377;45.130;6.038;2023-05-20T09:31:26;21.63;;;12.57;;
40967;SDS011;57377;45.130;6.038;2023-05-20T09:33:55;18.13;;;10.35;;
40967;SDS011;57377;45.130;6.038;2023-05-20T09:36:21;14.45;;;10.50;;
40967;SDS011;57377;45.130;6.038;2023-05-20T09:38:49;17.27;;;11.30;;
40967;SDS011;57377;45.130;6.038;2023-05-20T09:41:17;17.33;;;11.07;;
40967;SDS011;57377;45.130;6.038;2023-05-20T09:43:46;12.77;;;10.68;;
40967;SDS011;57377;45.130;6.038;2023-05-20T09:46:12;14.38;;;10.57;;
40967;SDS011;57377;45.130;6.038;2023-05-20T09:48:38;17.00;;;11.00;;
40967;SDS011;57377;45.130;6.038;2023-05-20T09:51:04;14.45;;;11.23;;
40967;SDS011;57377;45.130;6.038;2023-05-20T09:53:31;16.38;;;11.10;;
40967;SDS011;57377;45.130;6.038;2023-05-20T09:55:57;20.20;;;10.45;;
40967;SDS011;57377;45.130;6.038;2023-05-20T09:58:23;14.20;;;10.10;;
40967;SDS011;57377;45.130;6.038;2023-05-20T10:00:49;16.97;;;11.10;;
40967;SDS011;57377;45.130;6.038;2023-05-20T10:03:16;15.48;;;10.50;;
